sensor_id;sensor_type;location;lat;lon;timestamp;temperature;humidity
16635;DHT22;8431;52.458;9.998;2024-03-02T00:01:35;8.20;99.90
16635;DHT22;8431;52.458;9.998;2024-03-02T00:04:03;8.20;99.90
16635;DHT22;8431;52.458;9.998;2024-03-02T00:06:32;8.10;99.90
16635;DHT22;8431;52.458;9.998;2024-03-02T00:08:59;8.10;99.90
16635;DHT22;8431;52.458;9.998;2024-03-02T00:11:27;8.00;99.90
16635;DHT22;8431;52.458;9.998;2024-03-02T00:13:54;8.10;99.90
16635;DHT22;8431;52.458;9.998;2024-03-02T00:16:21;8.10;99.90
16635;DHT22;8431;52.458;9.998;2024-03-02T00:18:47;8.10;99.90
16635;DHT22;8431;52.458;9.998;2024-03-02T00:21:14;8.00;99.90
16635;DHT22;8431;52.458;9.998;2024-03-02T00:23:43;8.00;99.90
16635;DHT22;8431;52.458;9.998;2024-03-02T00:26:11;8.00;99.90
16635;DHT22;8431;52.458;9.998;2024-03-02T00:28:40;8.00;99.90
16635;DHT22;8431;52.458;9.998;2024-03-02T00:31:10;8.10;99.90
16635;DHT22;8431;52.458;9.998;2024-03-02T00:33:41;8.10;99.90
16635;DHT22;8431;52.458;9.998;2024-03-02T00:36:10;8.10;99.90
16635;DHT22;8431;52.458;9.998;2024-03-02T00:38:44;8.10;99.90
16635;DHT22;8431;52.458;9.998;2024-03-02T00:41:17;8.20;99.90
16635;DHT22;8431;52.458;9.998;2024-03-02T00:43:58;8.20;99.90
16635;DHT22;8431;52.458;9.998;2024-03-02T00:46:26;8.20;99.90
16635;DHT22;8431;52.458;9.998;2024-03-02T00:48:56;8.20;99.90
16635;DHT22;8431;52.458;9.998;2024-03-02T00:51:26;8.20;99.90
16635;DHT22;8431;52.458;9.998;2024-03-02T00:53:54;8.30;99.90
16635;DHT22;8431;52.458;9.998;2024-03-02T00:56:23;8.20;99.90
16635;DHT22;8431;52.458;9.998;2024-03-02T00:58:52;8.20;99.90
16635;DHT22;8431;52.458;9.998;2024-03-02T01:01:19;8.20;99.90
16635;DHT22;8431;52.458;9.998;2024-03-02T01:03:46;8.30;99.90
16635;DHT22;8431;52.458;9.998;2024-03-02T01:06:14;8.30;99.90
16635;DHT22;8431;52.458;9.998;2024-03-02T01:08:46;8.20;99.90
16635;DHT22;8431;52.458;9.998;2024-03-02T01:11:20;8.20;99.90
16635;DHT22;8431;52.458;9.998;2024-03-02T01:13:48;8.20;99.90
16635;DHT22;8431;52.458;9.998;2024-03-02T01:16:15;8.20;99.90
16635;DHT22;8431;52.458;9.998;2024-03-02T01:18:42;8.30;99.90
16635;DHT22;8431;52.458;9.998;2024-03-02T01:21:09;8.30;99.90
16635;DHT22;8431;52.458;9.998;2024-03-02T01:23:36;8.30;99.90
16635;DHT22;8431;52.458;9.998;2024-03-02T01:26:03;8.30;99.90
16635;DHT22;8431;52.458;9.998;2024-03-02T01:28:30;8.30;99.90
16635;DHT22;8431;52.458;9.998;2024-03-02T01:30:57;8.30;99.90
16635;DHT22;8431;52.458;9.998;2024-03-02T01:33:25;8.20;99.90
16635;DHT22;8431;52.458;9.998;2024-03-02T01:35:51;8.20;99.90
16635;DHT22;8431;52.458;9.998;2024-03-02T01:38:18;8.20;99.90
16635;DHT22;8431;52.458;9.998;2024-03-02T01:40:45;8.20;99.90
16635;DHT22;8431;52.458;9.998;2024-03-02T01:43:12;8.20;99.90
16635;DHT22;8431;52.458;9.998;2024-03-02T01:45:39;8.10;99.90
16635;DHT22;8431;52.458;9.998;2024-03-02T01:48:06;8.10;99.90
16635;DHT22;8431;52.458;9.998;2024-03-02T01:50:35;8.10;99.90
16635;DHT22;8431;52.458;9.998;2024-03-02T01:53:02;8.10;99.90
16635;DHT22;8431;52.458;9.998;2024-03-02T01:55:29;8.00;99.90
16635;DHT22;8431;52.458;9.998;2024-03-02T01:57:56;8.10;99.90
16635;DHT22;8431;52.458;9.998;2024-03-02T02:00:27;8.00;99.90
16635;DHT22;8431;52.458;9.998;2024-03-02T02:02:55;8.00;99.90
16635;DHT22;8431;52.458;9.998;2024-03-02T02:05:23;8.00;99.90
16635;DHT22;8431;52.458;9.998;2024-03-02T02:07:51;7.90;99.90
16635;DHT22;8431;52.458;9.998;2024-03-02T02:10:18;7.90;99.90
16635;DHT22;8431;52.458;9.998;2024-03-02T02:12:45;7.80;99.90
16635;DHT22;8431;52.458;9.998;2024-03-02T02:15:25;7.80;99.90
16635;DHT22;8431;52.458;9.998;2024-03-02T02:17:52;7.80;99.90
16635;DHT22;8431;52.458;9.998;2024-03-02T02:20:18;7.80;99.90
16635;DHT22;8431;52.458;9.998;2024-03-02T02:23:08;7.70;99.90
16635;DHT22;8431;52.458;9.998;2024-03-02T02:25:35;7.80;99.90
16635;DHT22;8431;52.458;9.998;2024-03-02T02:28:02;7.80;99.90
16635;DHT22;8431;52.458;9.998;2024-03-02T02:30:30;7.80;99.90
16635;DHT22;8431;52.458;9.998;2024-03-02T02:32:57;7.70;99.90
16635;DHT22;8431;52.458;9.998;2024-03-02T02:35:24;7.80;99.90
16635;DHT22;8431;52.458;9.998;2024-03-02T02:37:52;7.80;99.90
16635;DHT22;8431;52.458;9.998;2024-03-02T02:40:21;7.70;99.90
16635;DHT22;8431;52.458;9.998;2024-03-02T02:42:48;7.70;99.90
16635;DHT22;8431;52.458;9.998;2024-03-02T02:45:15;7.70;99.90
16635;DHT22;8431;52.458;9.998;2024-03-02T02:47:42;7.70;99.90
16635;DHT22;8431;52.458;9.998;2024-03-02T02:50:10;7.60;99.90
16635;DHT22;8431;52.458;9.998;2024-03-02T02:52:38;7.60;99.90
16635;DHT22;8431;52.458;9.998;2024-03-02T02:55:07;7.60;99.90
16635;DHT22;8431;52.458;9.998;2024-03-02T02:57:36;7.50;99.90
16635;DHT22;8431;52.458;9.998;2024-03-02T03:00:06;7.60;99.90
16635;DHT22;8431;52.458;9.998;2024-03-02T03:02:37;7.50;99.90
16635;DHT22;8431;52.458;9.998;2024-03-02T03:05:05;7.60;99.90
16635;DHT22;8431;52.458;9.998;2024-03-02T03:07:31;7.50;99.90
16635;DHT22;8431;52.458;9.998;2024-03-02T03:09:59;7.50;99.90
16635;DHT22;8431;52.458;9.998;2024-03-02T03:12:26;7.50;99.90
16635;DHT22;8431;52.458;9.998;2024-03-02T03:14:54;7.50;99.90
16635;DHT22;8431;52.458;9.998;2024-03-02T03:17:21;7.50;99.90
16635;DHT22;8431;52.458;9.998;2024-03-02T03:19:48;7.50;99.90
16635;DHT22;8431;52.458;9.998;2024-03-02T03:22:15;7.40;99.90
16635;DHT22;8431;52.458;9.998;2024-03-02T03:24:42;7.40;99.90
16635;DHT22;8431;52.458;9.998;2024-03-02T03:27:09;7.30;99.90
16635;DHT22;8431;52.458;9.998;2024-03-02T03:29:38;7.30;99.90
16635;DHT22;8431;52.458;9.998;2024-03-02T03:32:07;7.20;99.90
16635;DHT22;8431;52.458;9.998;2024-03-02T03:34:35;7.20;99.90
16635;DHT22;8431;52.458;9.998;2024-03-02T03:37:02;7.10;99.90
16635;DHT22;8431;52.458;9.998;2024-03-02T03:39:29;7.00;99.90
16635;DHT22;8431;52.458;9.998;2024-03-02T03:41:56;7.00;99.90
16635;DHT22;8431;52.458;9.998;2024-03-02T03:44:22;6.90;99.90
16635;DHT22;8431;52.458;9.998;2024-03-02T03:46:49;6.80;99.90
16635;DHT22;8431;52.458;9.998;2024-03-02T03:49:17;6.80;99.90
16635;DHT22;8431;52.458;9.998;2024-03-02T03:51:44;6.70;99.90
16635;DHT22;8431;52.458;9.998;2024-03-02T03:54:11;6.60;99.90
16635;DHT22;8431;52.458;9.998;2024-03-02T03:56:38;6.50;99.90
16635;DHT22;8431;52.458;9.998;2024-03-02T03:59:05;6.50;99.90
16635;DHT22;8431;52.458;9.998;2024-03-02T04:01:32;6.30;99.90
16635;DHT22;8431;52.458;9.998;2024-03-02T04:03:59;6.30;99.90
16635;DHT22;8431;52.458;9.998;2024-03-02T04:06:28;6.20;99.90
16635;DHT22;8431;52.458;9.998;2024-03-02T04:08:55;6.20;99.90
16635;DHT22;8431;52.458;9.998;2024-03-02T04:11:22;6.20;99.90
16635;DHT22;8431;52.458;9.998;2024-03-02T04:13:49;6.20;99.90
16635;DHT22;8431;52.458;9.998;2024-03-02T04:16:16;6.30;99.90
16635;DHT22;8431;52.458;9.998;2024-03-02T04:18:42;6.30;99.90
16635;DHT22;8431;52.458;9.998;2024-03-02T04:21:09;6.30;99.90
16635;DHT22;8431;52.458;9.998;2024-03-02T04:23:38;6.30;99.90
16635;DHT22;8431;52.458;9.998;2024-03-02T04:26:05;6.20;99.90
16635;DHT22;8431;52.458;9.998;2024-03-02T04:28:31;6.20;99.90
16635;DHT22;8431;52.458;9.998;2024-03-02T04:30:58;6.40;99.90
16635;DHT22;8431;52.458;9.998;2024-03-02T04:33:25;6.30;99.90
16635;DHT22;8431;52.458;9.998;2024-03-02T04:35:52;6.40;99.90
16635;DHT22;8431;52.458;9.998;2024-03-02T04:38:19;6.40;99.90
16635;DHT22;8431;52.458;9.998;2024-03-02T04:40:47;6.40;99.90
16635;DHT22;8431;52.458;9.998;2024-03-02T04:43:14;6.40;99.90
16635;DHT22;8431;52.458;9.998;2024-03-02T04:45:42;6.40;99.90
16635;DHT22;8431;52.458;9.998;2024-03-02T04:48:09;6.40;99.90
16635;DHT22;8431;52.458;9.998;2024-03-02T04:50:36;6.30;99.90
16635;DHT22;8431;52.458;9.998;2024-03-02T04:53:03;6.40;99.90
16635;DHT22;8431;52.458;9.998;2024-03-02T04:55:29;6.40;99.90
16635;DHT22;8431;52.458;9.998;2024-03-02T04:58:23;6.30;99.90
16635;DHT22;8431;52.458;9.998;2024-03-02T05:00:50;6.20;99.90
16635;DHT22;8431;52.458;9.998;2024-03-02T05:03:16;6.20;99.90
16635;DHT22;8431;52.458;9.998;2024-03-02T05:05:43;6.20;99.90
16635;DHT22;8431;52.458;9.998;2024-03-02T05:08:10;6.10;99.90
16635;DHT22;8431;52.458;9.998;2024-03-02T05:10:55;6.00;99.90
16635;DHT22;8431;52.458;9.998;2024-03-02T05:13:44;6.00;99.90
16635;DHT22;8431;52.458;9.998;2024-03-02T05:16:10;5.90;99.90
16635;DHT22;8431;52.458;9.998;2024-03-02T05:18:37;5.90;99.90
16635;DHT22;8431;52.458;9.998;2024-03-02T05:21:04;5.70;99.90
16635;DHT22;8431;52.458;9.998;2024-03-02T05:23:31;5.60;99.90
16635;DHT22;8431;52.458;9.998;2024-03-02T05:25:58;5.50;99.90
16635;DHT22;8431;52.458;9.998;2024-03-02T05:28:24;5.40;99.90
16635;DHT22;8431;52.458;9.998;2024-03-02T05:30:52;5.40;99.90
16635;DHT22;8431;52.458;9.998;2024-03-02T05:33:19;5.30;99.90
16635;DHT22;8431;52.458;9.998;2024-03-02T05:35:48;5.20;99.90
16635;DHT22;8431;52.458;9.998;2024-03-02T05:38:15;5.10;99.90
16635;DHT22;8431;52.458;9.998;2024-03-02T05:40:42;5.10;99.90
16635;DHT22;8431;52.458;9.998;2024-03-02T05:43:09;5.10;99.90
16635;DHT22;8431;52.458;9.998;2024-03-02T05:45:36;5.10;99.90
16635;DHT22;8431;52.458;9.998;2024-03-02T05:48:05;5.00;99.90
16635;DHT22;8431;52.458;9.998;2024-03-02T05:50:33;5.00;99.90
16635;DHT22;8431;52.458;9.998;2024-03-02T05:52:59;5.00;99.90
16635;DHT22;8431;52.458;9.998;2024-03-02T05:55:26;4.90;99.90
16635;DHT22;8431;52.458;9.998;2024-03-02T05:57:53;4.90;99.90
16635;DHT22;8431;52.458;9.998;2024-03-02T06:00:37;4.90;99.90
16635;DHT22;8431;52.458;9.998;2024-03-02T06:03:05;5.00;99.90
16635;DHT22;8431;52.458;9.998;2024-03-02T06:05:33;4.90;99.90
16635;DHT22;8431;52.458;9.998;2024-03-02T06:08:00;4.90;99.90
16635;DHT22;8431;52.458;9.998;2024-03-02T06:10:27;4.80;99.90
16635;DHT22;8431;52.458;9.998;2024-03-02T06:12:53;4.80;99.90
16635;DHT22;8431;52.458;9.998;2024-03-02T06:15:20;4.80;99.90
16635;DHT22;8431;52.458;9.998;2024-03-02T06:17:47;4.80;99.90
16635;DHT22;8431;52.458;9.998;2024-03-02T06:20:15;4.90;99.90
16635;DHT22;8431;52.458;9.998;2024-03-02T06:22:42;4.90;99.90
16635;DHT22;8431;52.458;9.998;2024-03-02T06:25:09;5.00;99.90
16635;DHT22;8431;52.458;9.998;2024-03-02T06:27:35;5.00;99.90
16635;DHT22;8431;52.458;9.998;2024-03-02T06:30:03;5.10;99.90
16635;DHT22;8431;52.458;9.998;2024-03-02T06:32:30;5.30;99.90
16635;DHT22;8431;52.458;9.998;2024-03-02T06:34:57;5.30;99.90
16635;DHT22;8431;52.458;9.998;2024-03-02T06:37:26;5.30;99.90
16635;DHT22;8431;52.458;9.998;2024-03-02T06:39:53;5.40;99.90
16635;DHT22;8431;52.458;9.998;2024-03-02T06:42:20;5.40;99.90
16635;DHT22;8431;52.458;9.998;2024-03-02T06:44:47;5.40;99.90
16635;DHT22;8431;52.458;9.998;2024-03-02T06:47:14;5.50;99.90
16635;DHT22;8431;52.458;9.998;2024-03-02T06:49:42;5.50;99.90
16635;DHT22;8431;52.458;9.998;2024-03-02T06:52:09;5.50;99.90
16635;DHT22;8431;52.458;9.998;2024-03-02T06:54:38;5.60;99.90
16635;DHT22;8431;52.458;9.998;2024-03-02T06:57:04;5.60;99.90
16635;DHT22;8431;52.458;9.998;2024-03-02T06:59:31;5.70;99.90
16635;DHT22;8431;52.458;9.998;2024-03-02T07:01:59;5.80;99.90
16635;DHT22;8431;52.458;9.998;2024-03-02T07:04:26;5.90;99.90
16635;DHT22;8431;52.458;9.998;2024-03-02T07:06:53;6.00;99.90
16635;DHT22;8431;52.458;9.998;2024-03-02T07:09:20;6.10;99.90
16635;DHT22;8431;52.458;9.998;2024-03-02T07:11:49;6.20;99.90
16635;DHT22;8431;52.458;9.998;2024-03-02T07:14:16;6.20;99.90
16635;DHT22;8431;52.458;9.998;2024-03-02T07:16:43;6.30;99.90
16635;DHT22;8431;52.458;9.998;2024-03-02T07:19:10;6.30;99.90
16635;DHT22;8431;52.458;9.998;2024-03-02T07:21:37;6.40;99.90
16635;DHT22;8431;52.458;9.998;2024-03-02T07:24:04;6.50;99.90
16635;DHT22;8431;52.458;9.998;2024-03-02T07:26:32;6.60;99.90
16635;DHT22;8431;52.458;9.998;2024-03-02T07:29:00;6.60;99.90
16635;DHT22;8431;52.458;9.998;2024-03-02T07:31:27;6.60;99.90
16635;DHT22;8431;52.458;9.998;2024-03-02T07:33:54;6.60;99.90
16635;DHT22;8431;52.458;9.998;2024-03-02T07:36:21;6.70;99.90
16635;DHT22;8431;52.458;9.998;2024-03-02T07:38:47;6.70;99.90
16635;DHT22;8431;52.458;9.998;2024-03-02T07:41:16;6.80;99.90
16635;DHT22;8431;52.458;9.998;2024-03-02T07:43:43;6.80;99.90
16635;DHT22;8431;52.458;9.998;2024-03-02T07:46:12;6.80;99.90
16635;DHT22;8431;52.458;9.998;2024-03-02T07:48:39;6.80;99.90
16635;DHT22;8431;52.458;9.998;2024-03-02T07:51:06;6.90;99.90
16635;DHT22;8431;52.458;9.998;2024-03-02T07:53:33;7.00;99.90
16635;DHT22;8431;52.458;9.998;2024-03-02T07:56:00;7.00;99.90
16635;DHT22;8431;52.458;9.998;2024-03-02T07:58:28;7.10;99.90
16635;DHT22;8431;52.458;9.998;2024-03-02T08:00:55;7.20;99.90
16635;DHT22;8431;52.458;9.998;2024-03-02T08:03:23;7.30;99.90
16635;DHT22;8431;52.458;9.998;2024-03-02T08:05:50;7.30;99.90
16635;DHT22;8431;52.458;9.998;2024-03-02T08:08:18;7.40;99.90
16635;DHT22;8431;52.458;9.998;2024-03-02T08:10:45;7.50;99.90
16635;DHT22;8431;52.458;9.998;2024-03-02T08:13:11;7.70;99.90
16635;DHT22;8431;52.458;9.998;2024-03-02T08:15:39;7.80;99.90
16635;DHT22;8431;52.458;9.998;2024-03-02T08:18:05;8.00;99.90
16635;DHT22;8431;52.458;9.998;2024-03-02T08:20:33;8.10;99.90
16635;DHT22;8431;52.458;9.998;2024-03-02T08:23:00;8.20;99.90
16635;DHT22;8431;52.458;9.998;2024-03-02T08:25:27;8.30;99.90
16635;DHT22;8431;52.458;9.998;2024-03-02T08:27:54;8.50;99.90
16635;DHT22;8431;52.458;9.998;2024-03-02T08:30:20;8.60;99.90
16635;DHT22;8431;52.458;9.998;2024-03-02T08:32:47;8.80;99.90
16635;DHT22;8431;52.458;9.998;2024-03-02T08:35:14;9.00;99.90
16635;DHT22;8431;52.458;9.998;2024-03-02T08:37:44;9.10;99.90
16635;DHT22;8431;52.458;9.998;2024-03-02T08:40:11;9.20;99.90
16635;DHT22;8431;52.458;9.998;2024-03-02T08:42:38;9.30;99.90
16635;DHT22;8431;52.458;9.998;2024-03-02T08:45:06;9.30;99.90
16635;DHT22;8431;52.458;9.998;2024-03-02T08:47:33;9.50;99.90
16635;DHT22;8431;52.458;9.998;2024-03-02T08:50:00;9.60;99.90
16635;DHT22;8431;52.458;9.998;2024-03-02T08:52:27;9.80;99.90
16635;DHT22;8431;52.458;9.998;2024-03-02T08:54:55;9.90;99.90
16635;DHT22;8431;52.458;9.998;2024-03-02T08:57:22;10.00;99.90
16635;DHT22;8431;52.458;9.998;2024-03-02T08:59:49;10.10;99.90
16635;DHT22;8431;52.458;9.998;2024-03-02T09:02:16;10.10;99.90
16635;DHT22;8431;52.458;9.998;2024-03-02T09:04:43;10.20;99.90
16635;DHT22;8431;52.458;9.998;2024-03-02T09:07:10;10.20;99.90
16635;DHT22;8431;52.458;9.998;2024-03-02T09:09:37;10.30;99.90
16635;DHT22;8431;52.458;9.998;2024-03-02T09:12:06;10.40;99.90
16635;DHT22;8431;52.458;9.998;2024-03-02T09:14:35;10.50;99.90
16635;DHT22;8431;52.458;9.998;2024-03-02T09:17:03;10.60;99.90
16635;DHT22;8431;52.458;9.998;2024-03-02T09:19:30;10.60;99.70
16635;DHT22;8431;52.458;9.998;2024-03-02T09:21:57;10.70;99.30
16635;DHT22;8431;52.458;9.998;2024-03-02T09:24:24;10.70;99.00
16635;DHT22;8431;52.458;9.998;2024-03-02T09:26:51;10.80;98.10
16635;DHT22;8431;52.458;9.998;2024-03-02T09:29:19;10.90;99.00
16635;DHT22;8431;52.458;9.998;2024-03-02T09:31:46;11.00;98.50
16635;DHT22;8431;52.458;9.998;2024-03-02T09:34:13;11.10;98.20
16635;DHT22;8431;52.458;9.998;2024-03-02T09:36:41;11.20;98.60
16635;DHT22;8431;52.458;9.998;2024-03-02T09:39:08;11.30;97.20
16635;DHT22;8431;52.458;9.998;2024-03-02T09:41:36;11.30;97.70
16635;DHT22;8431;52.458;9.998;2024-03-02T09:44:03;11.40;98.30
16635;DHT22;8431;52.458;9.998;2024-03-02T09:46:32;11.50;97.80
16635;DHT22;8431;52.458;9.998;2024-03-02T09:48:59;11.50;97.10
16635;DHT22;8431;52.458;9.998;2024-03-02T09:51:26;11.60;96.90
16635;DHT22;8431;52.458;9.998;2024-03-02T09:53:54;11.70;97.50
16635;DHT22;8431;52.458;9.998;2024-03-02T09:56:21;11.80;95.90
16635;DHT22;8431;52.458;9.998;2024-03-02T09:58:48;11.90;96.30
16635;DHT22;8431;52.458;9.998;2024-03-02T10:01:15;12.00;95.00
16635;DHT22;8431;52.458;9.998;2024-03-02T10:03:44;12.00;96.20
16635;DHT22;8431;52.458;9.998;2024-03-02T10:06:19;12.00;95.60
16635;DHT22;8431;52.458;9.998;2024-03-02T10:08:46;12.20;95.70
16635;DHT22;8431;52.458;9.998;2024-03-02T10:11:26;12.10;95.30
16635;DHT22;8431;52.458;9.998;2024-03-02T10:14:07;12.00;94.90
16635;DHT22;8431;52.458;9.998;2024-03-02T10:16:39;12.20;95.50
16635;DHT22;8431;52.458;9.998;2024-03-02T10:19:17;12.30;95.20
16635;DHT22;8431;52.458;9.998;2024-03-02T10:21:44;12.40;95.10
16635;DHT22;8431;52.458;9.998;2024-03-02T10:24:11;12.30;95.80
16635;DHT22;8431;52.458;9.998;2024-03-02T10:26:38;12.50;96.00
16635;DHT22;8431;52.458;9.998;2024-03-02T10:29:07;12.50;94.30
16635;DHT22;8431;52.458;9.998;2024-03-02T10:31:37;12.60;95.10
16635;DHT22;8431;52.458;9.998;2024-03-02T10:34:04;12.80;95.50
16635;DHT22;8431;52.458;9.998;2024-03-02T10:36:34;12.70;94.90
16635;DHT22;8431;52.458;9.998;2024-03-02T10:39:03;12.80;95.80
16635;DHT22;8431;52.458;9.998;2024-03-02T10:41:33;12.90;95.20
16635;DHT22;8431;52.458;9.998;2024-03-02T10:44:02;13.00;94.50
16635;DHT22;8431;52.458;9.998;2024-03-02T10:46:34;12.80;94.20
16635;DHT22;8431;52.458;9.998;2024-03-02T10:49:11;12.80;95.00
16635;DHT22;8431;52.458;9.998;2024-03-02T10:51:39;13.00;94.70
16635;DHT22;8431;52.458;9.998;2024-03-02T10:54:06;13.10;93.90
16635;DHT22;8431;52.458;9.998;2024-03-02T10:56:39;13.20;95.00
16635;DHT22;8431;52.458;9.998;2024-03-02T10:59:16;13.20;94.30
16635;DHT22;8431;52.458;9.998;2024-03-02T11:01:47;13.20;94.80
16635;DHT22;8431;52.458;9.998;2024-03-02T11:04:16;13.30;94.60
16635;DHT22;8431;52.458;9.998;2024-03-02T11:06:49;13.20;95.50
16635;DHT22;8431;52.458;9.998;2024-03-02T11:09:18;13.20;94.20
16635;DHT22;8431;52.458;9.998;2024-03-02T11:11:59;13.20;95.10
16635;DHT22;8431;52.458;9.998;2024-03-02T11:14:30;13.40;94.00
16635;DHT22;8431;52.458;9.998;2024-03-02T11:16:58;13.40;94.60
16635;DHT22;8431;52.458;9.998;2024-03-02T11:19:26;13.50;94.80
16635;DHT22;8431;52.458;9.998;2024-03-02T11:21:55;13.50;94.40
16635;DHT22;8431;52.458;9.998;2024-03-02T11:24:30;13.50;94.20
16635;DHT22;8431;52.458;9.998;2024-03-02T11:27:00;13.50;94.80
16635;DHT22;8431;52.458;9.998;2024-03-02T11:29:43;13.60;93.80
16635;DHT22;8431;52.458;9.998;2024-03-02T11:32:14;13.70;93.60
16635;DHT22;8431;52.458;9.998;2024-03-02T11:34:42;13.80;93.40
16635;DHT22;8431;52.458;9.998;2024-03-02T11:37:13;13.80;93.20
16635;DHT22;8431;52.458;9.998;2024-03-02T11:39:41;13.60;93.70
16635;DHT22;8431;52.458;9.998;2024-03-02T11:42:09;13.60;93.80
16635;DHT22;8431;52.458;9.998;2024-03-02T11:44:36;13.50;92.70
16635;DHT22;8431;52.458;9.998;2024-03-02T11:47:06;13.50;92.90
16635;DHT22;8431;52.458;9.998;2024-03-02T11:49:37;13.60;92.70
16635;DHT22;8431;52.458;9.998;2024-03-02T11:52:06;13.60;91.60
16635;DHT22;8431;52.458;9.998;2024-03-02T11:54:35;13.50;92.20
16635;DHT22;8431;52.458;9.998;2024-03-02T11:57:05;13.60;92.40
16635;DHT22;8431;52.458;9.998;2024-03-02T11:59:32;13.60;93.00
16635;DHT22;8431;52.458;9.998;2024-03-02T12:02:00;13.60;91.70
16635;DHT22;8431;52.458;9.998;2024-03-02T12:04:29;13.70;92.40
16635;DHT22;8431;52.458;9.998;2024-03-02T12:06:58;13.90;91.30
16635;DHT22;8431;52.458;9.998;2024-03-02T12:09:26;13.90;91.60
16635;DHT22;8431;52.458;9.998;2024-03-02T12:12:05;14.10;91.40
16635;DHT22;8431;52.458;9.998;2024-03-02T12:14:34;14.10;91.00
16635;DHT22;8431;52.458;9.998;2024-03-02T12:17:04;14.10;90.30
16635;DHT22;8431;52.458;9.998;2024-03-02T12:19:32;13.90;90.70
16635;DHT22;8431;52.458;9.998;2024-03-02T12:22:00;14.00;91.30
16635;DHT22;8431;52.458;9.998;2024-03-02T12:24:29;13.90;91.20
16635;DHT22;8431;52.458;9.998;2024-03-02T12:26:57;14.00;91.10
16635;DHT22;8431;52.458;9.998;2024-03-02T12:29:26;13.90;90.50
16635;DHT22;8431;52.458;9.998;2024-03-02T12:31:53;13.80;91.40
16635;DHT22;8431;52.458;9.998;2024-03-02T12:34:21;13.80;90.90
16635;DHT22;8431;52.458;9.998;2024-03-02T12:36:48;13.90;90.90
16635;DHT22;8431;52.458;9.998;2024-03-02T12:39:18;14.10;90.90
16635;DHT22;8431;52.458;9.998;2024-03-02T12:41:49;14.10;90.40
16635;DHT22;8431;52.458;9.998;2024-03-02T12:44:17;14.10;91.00
16635;DHT22;8431;52.458;9.998;2024-03-02T12:46:45;14.10;90.50
16635;DHT22;8431;52.458;9.998;2024-03-02T12:49:14;14.20;89.00
16635;DHT22;8431;52.458;9.998;2024-03-02T12:51:42;14.30;90.10
16635;DHT22;8431;52.458;9.998;2024-03-02T12:54:09;14.40;90.40
16635;DHT22;8431;52.458;9.998;2024-03-02T12:56:37;14.50;88.90
16635;DHT22;8431;52.458;9.998;2024-03-02T12:59:04;14.40;89.00
16635;DHT22;8431;52.458;9.998;2024-03-02T13:01:33;14.40;89.50
16635;DHT22;8431;52.458;9.998;2024-03-02T13:04:02;14.30;89.20
16635;DHT22;8431;52.458;9.998;2024-03-02T13:06:32;14.40;88.70
16635;DHT22;8431;52.458;9.998;2024-03-02T13:08:59;14.50;90.00
16635;DHT22;8431;52.458;9.998;2024-03-02T13:11:26;14.50;90.00
16635;DHT22;8431;52.458;9.998;2024-03-02T13:13:53;14.50;88.20
16635;DHT22;8431;52.458;9.998;2024-03-02T13:16:20;14.40;88.60
16635;DHT22;8431;52.458;9.998;2024-03-02T13:18:46;14.40;88.00
16635;DHT22;8431;52.458;9.998;2024-03-02T13:21:15;14.60;88.40
16635;DHT22;8431;52.458;9.998;2024-03-02T13:23:42;14.60;89.20
16635;DHT22;8431;52.458;9.998;2024-03-02T13:26:08;14.50;88.60
16635;DHT22;8431;52.458;9.998;2024-03-02T13:28:38;14.50;87.30
16635;DHT22;8431;52.458;9.998;2024-03-02T13:31:05;14.40;88.30
16635;DHT22;8431;52.458;9.998;2024-03-02T13:33:32;14.40;87.90
16635;DHT22;8431;52.458;9.998;2024-03-02T13:35:59;14.40;87.70
16635;DHT22;8431;52.458;9.998;2024-03-02T13:38:28;14.30;88.90
16635;DHT22;8431;52.458;9.998;2024-03-02T13:40:55;14.30;88.80
16635;DHT22;8431;52.458;9.998;2024-03-02T13:43:22;14.20;90.00
16635;DHT22;8431;52.458;9.998;2024-03-02T13:45:49;14.20;90.50
16635;DHT22;8431;52.458;9.998;2024-03-02T13:48:17;14.20;89.80
16635;DHT22;8431;52.458;9.998;2024-03-02T13:50:45;14.10;90.30
16635;DHT22;8431;52.458;9.998;2024-03-02T13:53:22;14.10;90.30
16635;DHT22;8431;52.458;9.998;2024-03-02T13:55:51;14.10;90.30
16635;DHT22;8431;52.458;9.998;2024-03-02T13:58:21;14.10;90.20
16635;DHT22;8431;52.458;9.998;2024-03-02T14:00:50;14.20;90.10
16635;DHT22;8431;52.458;9.998;2024-03-02T14:03:19;14.10;90.20
16635;DHT22;8431;52.458;9.998;2024-03-02T14:05:49;14.10;90.00
16635;DHT22;8431;52.458;9.998;2024-03-02T14:08:23;14.10;91.50
16635;DHT22;8431;52.458;9.998;2024-03-02T14:10:54;14.30;90.20
16635;DHT22;8431;52.458;9.998;2024-03-02T14:13:21;14.40;88.70
16635;DHT22;8431;52.458;9.998;2024-03-02T14:15:48;14.30;90.10
16635;DHT22;8431;52.458;9.998;2024-03-02T14:18:19;14.20;90.10
16635;DHT22;8431;52.458;9.998;2024-03-02T14:20:46;14.20;90.10
16635;DHT22;8431;52.458;9.998;2024-03-02T14:23:17;14.10;90.20
16635;DHT22;8431;52.458;9.998;2024-03-02T14:25:44;14.10;90.00
16635;DHT22;8431;52.458;9.998;2024-03-02T14:28:13;14.00;90.10
16635;DHT22;8431;52.458;9.998;2024-03-02T14:30:41;14.10;90.40
16635;DHT22;8431;52.458;9.998;2024-03-02T14:33:08;14.10;90.40
16635;DHT22;8431;52.458;9.998;2024-03-02T14:35:36;14.20;90.00
16635;DHT22;8431;52.458;9.998;2024-03-02T14:38:03;14.30;89.40
16635;DHT22;8431;52.458;9.998;2024-03-02T14:40:30;14.20;88.50
16635;DHT22;8431;52.458;9.998;2024-03-02T14:42:57;14.20;89.80
16635;DHT22;8431;52.458;9.998;2024-03-02T14:45:25;14.30;90.00
16635;DHT22;8431;52.458;9.998;2024-03-02T14:47:53;14.30;89.50
16635;DHT22;8431;52.458;9.998;2024-03-02T14:50:20;14.30;89.80
16635;DHT22;8431;52.458;9.998;2024-03-02T14:52:47;14.30;89.70
16635;DHT22;8431;52.458;9.998;2024-03-02T14:55:13;14.30;90.70
16635;DHT22;8431;52.458;9.998;2024-03-02T14:57:40;14.30;90.00
16635;DHT22;8431;52.458;9.998;2024-03-02T15:00:08;14.20;88.80
16635;DHT22;8431;52.458;9.998;2024-03-02T15:02:38;14.20;89.20
16635;DHT22;8431;52.458;9.998;2024-03-02T15:05:06;14.10;87.70
16635;DHT22;8431;52.458;9.998;2024-03-02T15:07:33;14.10;87.30
16635;DHT22;8431;52.458;9.998;2024-03-02T15:10:00;13.90;87.00
16635;DHT22;8431;52.458;9.998;2024-03-02T15:12:27;13.80;87.50
16635;DHT22;8431;52.458;9.998;2024-03-02T15:14:53;13.80;87.60
16635;DHT22;8431;52.458;9.998;2024-03-02T15:17:30;13.80;87.80
16635;DHT22;8431;52.458;9.998;2024-03-02T15:19:58;13.70;87.70
16635;DHT22;8431;52.458;9.998;2024-03-02T15:22:25;13.60;88.80
16635;DHT22;8431;52.458;9.998;2024-03-02T15:24:52;13.50;88.80
16635;DHT22;8431;52.458;9.998;2024-03-02T15:27:42;13.40;89.80
16635;DHT22;8431;52.458;9.998;2024-03-02T15:30:10;13.40;88.30
16635;DHT22;8431;52.458;9.998;2024-03-02T15:32:38;13.40;89.00
16635;DHT22;8431;52.458;9.998;2024-03-02T15:35:07;13.30;88.50
16635;DHT22;8431;52.458;9.998;2024-03-02T15:37:34;13.30;89.10
16635;DHT22;8431;52.458;9.998;2024-03-02T15:40:01;13.20;89.80
16635;DHT22;8431;52.458;9.998;2024-03-02T15:42:32;13.10;90.50
16635;DHT22;8431;52.458;9.998;2024-03-02T15:44:59;13.10;89.50
16635;DHT22;8431;52.458;9.998;2024-03-02T15:47:26;13.00;90.40
16635;DHT22;8431;52.458;9.998;2024-03-02T15:49:53;12.90;91.20
16635;DHT22;8431;52.458;9.998;2024-03-02T15:52:33;12.90;91.30
16635;DHT22;8431;52.458;9.998;2024-03-02T15:55:00;12.90;90.70
16635;DHT22;8431;52.458;9.998;2024-03-02T15:57:30;12.80;90.60
16635;DHT22;8431;52.458;9.998;2024-03-02T15:59:57;12.70;90.70
16635;DHT22;8431;52.458;9.998;2024-03-02T16:02:24;12.70;90.60